createdAt,value
2019-02-23T00:00:03.477Z,1040.7
2019-02-23T00:01:03.666Z,1040.6
2019-02-23T00:02:03.405Z,1040.7
2019-02-23T00:03:02.876Z,1040.7
2019-02-23T00:04:03.798Z,1040.7
2019-02-23T00:05:03.795Z,1040.6
2019-02-23T00:06:02.940Z,1040.7
2019-02-23T00:07:03.361Z,1040.6
2019-02-23T00:08:03.751Z,1040.7
2019-02-23T00:09:03.045Z,1040.5
2019-02-23T00:10:03.582Z,1040.7
2019-02-23T00:11:03.046Z,1040.7
2019-02-23T00:12:05.070Z,1040.7
2019-02-23T00:13:03.154Z,1040.8
2019-02-23T00:14:03.210Z,1040.8
2019-02-23T00:15:03.813Z,1040.8
2019-02-23T00:16:02.853Z,1040.8
2019-02-23T00:17:04.043Z,1040.8
2019-02-23T00:18:03.279Z,1040.8
2019-02-23T00:19:03.414Z,1040.9
2019-02-23T00:20:03.322Z,1041
2019-02-23T00:21:03.686Z,1040.9
2019-02-23T00:22:03.047Z,1041
2019-02-23T00:23:03.619Z,1041
2019-02-23T00:24:03.656Z,1041
2019-02-23T00:25:03.366Z,1041
2019-02-23T00:26:03.871Z,1040.9
2019-02-23T00:27:03.273Z,1041
2019-02-23T00:28:03.638Z,1040.8
2019-02-23T00:29:03.282Z,1040.9
2019-02-23T00:30:03.038Z,1040.9
2019-02-23T00:31:03.578Z,1040.9
2019-02-23T00:32:03.349Z,1040.9
2019-02-23T00:33:03.730Z,1041
2019-02-23T00:34:03.220Z,1040.9
2019-02-23T00:35:03.883Z,1040.9
2019-02-23T00:36:03.061Z,1041
2019-02-23T00:37:03.490Z,1041
2019-02-23T00:38:03.797Z,1041
2019-02-23T00:39:03.268Z,1041
2019-02-23T00:40:02.955Z,1040.9
2019-02-23T00:41:02.934Z,1040.9
2019-02-23T00:42:03.659Z,1040.9
2019-02-23T00:43:03.027Z,1041.1
2019-02-23T00:44:03.306Z,1041.1
2019-02-23T00:45:03.774Z,1041
2019-02-23T00:46:03.335Z,1041
2019-02-23T00:47:03.912Z,1040.9
2019-02-23T00:48:03.201Z,1041
2019-02-23T00:49:03.543Z,1041
2019-02-23T00:50:03.277Z,1041
2019-02-23T00:51:03.823Z,1041
2019-02-23T00:52:03.246Z,1040.9
2019-02-23T00:53:03.398Z,1041
2019-02-23T00:54:02.862Z,1040.9
2019-02-23T00:55:03.708Z,1040.9
2019-02-23T00:56:02.894Z,1041
2019-02-23T00:57:03.717Z,1041
2019-02-23T00:58:03.794Z,1041
2019-02-23T00:59:02.998Z,1041.1
2019-02-23T01:00:03.518Z,1040.9
2019-02-23T01:01:03.171Z,1041
2019-02-23T01:02:03.943Z,1041
2019-02-23T01:03:03.210Z,1041
2019-02-23T01:04:03.618Z,1041
2019-02-23T01:05:03.280Z,1041.1
2019-02-23T01:06:03.346Z,1041.2
2019-02-23T01:07:03.660Z,1041.1
2019-02-23T01:08:03.330Z,1041
2019-02-23T01:09:02.791Z,1041.1
2019-02-23T01:10:03.468Z,1041.1
2019-02-23T01:11:03.167Z,1041.2
2019-02-23T01:12:03.592Z,1041.1
2019-02-23T01:13:03.103Z,1041.1
2019-02-23T01:14:03.246Z,1041.4
2019-02-23T01:15:04.070Z,1041.3
2019-02-23T01:16:03.335Z,1041.3
2019-02-23T01:17:03.776Z,1041.3
2019-02-23T01:18:02.994Z,1041.3
2019-02-23T01:19:03.431Z,1041.4
2019-02-23T01:20:03.753Z,1041.4
2019-02-23T01:21:03.518Z,1041.4
2019-02-23T01:22:03.673Z,1041.4
2019-02-23T01:23:03.212Z,1041.4
2019-02-23T01:24:03.701Z,1041.4
2019-02-23T01:25:02.800Z,1041.4
2019-02-23T01:26:03.213Z,1041.4
2019-02-23T01:27:03.917Z,1041.4
2019-02-23T01:28:03.314Z,1041.5
2019-02-23T01:29:03.474Z,1041.5
2019-02-23T01:30:03.163Z,1041.5
2019-02-23T01:31:03.292Z,1041.5
2019-02-23T01:32:03.172Z,1041.3
2019-02-23T01:33:03.250Z,1041.5
2019-02-23T01:34:03.435Z,1041.5
2019-02-23T01:35:03.151Z,1041.3
2019-02-23T01:36:03.963Z,1041.5
2019-02-23T01:37:03.104Z,1041.3
2019-02-23T01:38:03.821Z,1041.3
2019-02-23T01:39:03.037Z,1041.4
2019-02-23T01:40:03.912Z,1041.4
2019-02-23T01:41:03.371Z,1041.4
2019-02-23T01:42:03.718Z,1041.5
2019-02-23T01:43:03.194Z,1041.5
2019-02-23T01:44:03.158Z,1041.5
2019-02-23T01:45:03.601Z,1041.5
2019-02-23T01:46:03.096Z,1041.5
2019-02-23T01:47:03.877Z,1041.5
2019-02-23T01:48:03.147Z,1041.5
2019-02-23T01:49:03.785Z,1041.5
2019-02-23T01:50:03.143Z,1041.6
2019-02-23T01:51:03.722Z,1041.6
2019-02-23T01:52:02.997Z,1041.6
2019-02-23T01:53:03.709Z,1041.5
2019-02-23T01:54:02.918Z,1041.7
2019-02-23T01:55:03.739Z,1041.5
2019-02-23T01:56:03.689Z,1041.6
2019-02-23T01:57:03.284Z,1041.5
2019-02-23T01:58:03.633Z,1041.6
2019-02-23T01:59:03.300Z,1041.5
2019-02-23T02:00:03.716Z,1041.7
2019-02-23T02:01:03.062Z,1041.5
2019-02-23T02:02:02.980Z,1041.6
2019-02-23T02:03:03.067Z,1041.6
2019-02-23T02:04:03.703Z,1041.6
2019-02-23T02:05:03.165Z,1041.7
2019-02-23T02:06:03.678Z,1041.7
2019-02-23T02:07:03.551Z,1041.8
2019-02-23T02:08:03.570Z,1041.6
2019-02-23T02:09:03.448Z,1041.7
2019-02-23T02:10:03.870Z,1041.7
2019-02-23T02:11:03.054Z,1041.6
2019-02-23T02:12:03.686Z,1041.6
2019-02-23T02:13:02.941Z,1041.6
2019-02-23T02:14:03.702Z,1041.6
2019-02-23T02:15:03.006Z,1041.4
2019-02-23T02:16:03.201Z,1041.6
2019-02-23T02:17:02.959Z,1041.6
2019-02-23T02:18:03.690Z,1041.4
2019-02-23T02:19:03.955Z,1041.6
2019-02-23T02:20:11.978Z,1041.5
2019-02-23T02:21:03.643Z,1041.7
2019-02-23T02:22:03.825Z,1041.6
2019-02-23T02:23:03.213Z,1041.6
2019-02-23T02:24:03.041Z,1041.6
2019-02-23T02:25:03.380Z,1041.7
2019-02-23T02:26:03.032Z,1041.7
2019-02-23T02:27:03.444Z,1041.7
2019-02-23T02:28:03.049Z,1041.6
2019-02-23T02:29:03.377Z,1041.7
2019-02-23T02:30:03.151Z,1041.6
2019-02-23T02:31:03.579Z,1041.6
2019-02-23T02:32:03.984Z,1041.6
2019-02-23T02:33:03.262Z,1041.7
2019-02-23T02:34:03.648Z,1041.7
2019-02-23T02:35:03.213Z,1041.7
2019-02-23T02:36:03.510Z,1041.6
2019-02-23T02:37:03.090Z,1041.7
2019-02-23T02:38:03.482Z,1041.7
2019-02-23T02:39:03.059Z,1041.8
2019-02-23T02:40:04.091Z,1041.7
2019-02-23T02:41:02.957Z,1041.6
2019-02-23T02:42:03.363Z,1041.7
2019-02-23T02:43:03.110Z,1041.7
2019-02-23T02:44:03.578Z,1041.7
2019-02-23T02:45:03.305Z,1041.8
2019-02-23T02:46:03.585Z,1041.6
2019-02-23T02:47:02.994Z,1041.6
2019-02-23T02:48:03.624Z,1041.7
2019-02-23T02:49:03.235Z,1041.6
2019-02-23T02:50:03.781Z,1041.6
2019-02-23T02:51:03.191Z,1041.5
2019-02-23T02:52:03.703Z,1041.6
2019-02-23T02:53:03.735Z,1041.5
2019-02-23T02:54:03.468Z,1041.5
2019-02-23T02:55:02.705Z,1041.5
2019-02-23T02:56:03.631Z,1041.5
2019-02-23T02:57:02.680Z,1041.5
2019-02-23T02:58:03.804Z,1041.5
2019-02-23T02:59:03.195Z,1041.7
2019-02-23T03:00:03.739Z,1041.6
2019-02-23T03:01:03.875Z,1041.6
2019-02-23T03:02:03.606Z,1041.6
2019-02-23T03:03:03.700Z,1041.5
2019-02-23T03:04:03.620Z,1041.5
2019-02-23T03:05:03.857Z,1041.5
2019-02-23T03:06:03.423Z,1041.6
2019-02-23T03:07:03.708Z,1041.6
2019-02-23T03:08:03.395Z,1041.6
2019-02-23T03:09:03.732Z,1041.5
2019-02-23T03:10:02.867Z,1041.5
2019-02-23T03:11:03.896Z,1041.6
2019-02-23T03:12:03.008Z,1041.6
2019-02-23T03:13:03.779Z,1041.6
2019-02-23T03:14:03.185Z,1041.7
2019-02-23T03:15:03.444Z,1041.7
2019-02-23T03:16:03.300Z,1041.8
2019-02-23T03:17:03.599Z,1041.8
2019-02-23T03:18:03.120Z,1041.9
2019-02-23T03:19:03.582Z,1041.9
2019-02-23T03:20:03.038Z,1041.8
2019-02-23T03:21:03.466Z,1041.9
2019-02-23T03:22:02.909Z,1041.8
2019-02-23T03:23:03.744Z,1041.8
2019-02-23T03:24:04.082Z,1041.8
2019-02-23T03:25:03.577Z,1041.9
2019-02-23T03:26:03.799Z,1041.9
2019-02-23T03:27:03.375Z,1041.9
2019-02-23T03:28:03.854Z,1041.9
2019-02-23T03:29:03.370Z,1041.9
2019-02-23T03:30:03.493Z,1041.9
2019-02-23T03:31:03.564Z,1042
2019-02-23T03:32:03.129Z,1041.9
2019-02-23T03:33:03.336Z,1042
2019-02-23T03:34:03.142Z,1042
2019-02-23T03:35:03.612Z,1042
2019-02-23T03:36:03.849Z,1041.9
2019-02-23T03:37:03.557Z,1041.9
2019-02-23T03:38:02.900Z,1042.1
2019-02-23T03:39:03.906Z,1042
2019-02-23T03:40:03.003Z,1042
2019-02-23T03:41:03.359Z,1042
2019-02-23T03:42:03.017Z,1042
2019-02-23T03:43:03.604Z,1042
2019-02-23T03:44:03.898Z,1042.1
2019-02-23T03:45:03.338Z,1042
2019-02-23T03:46:03.944Z,1042.1
2019-02-23T03:47:03.510Z,1042
2019-02-23T03:48:03.146Z,1042.1
2019-02-23T03:49:03.512Z,1042
2019-02-23T03:50:03.142Z,1041.9
2019-02-23T03:51:03.113Z,1042
2019-02-23T03:52:02.946Z,1042
2019-02-23T03:53:03.398Z,1042.2
2019-02-23T03:54:03.060Z,1042.1
2019-02-23T03:55:03.671Z,1042
2019-02-23T03:56:03.720Z,1042.2
2019-02-23T03:57:03.421Z,1042.1
2019-02-23T03:58:03.018Z,1042.1
2019-02-23T03:59:03.582Z,1042.1
2019-02-23T04:00:03.120Z,1042.1
2019-02-23T04:01:03.578Z,1042.1
2019-02-23T04:02:03.098Z,1042.1
2019-02-23T04:03:03.953Z,1042
2019-02-23T04:04:03.737Z,1042
2019-02-23T04:05:03.590Z,1042
2019-02-23T04:06:03.872Z,1042
2019-02-23T04:07:03.344Z,1041.9
2019-02-23T04:08:03.805Z,1041.9
2019-02-23T04:09:03.341Z,1041.9
2019-02-23T04:10:03.500Z,1041.9
2019-02-23T04:11:03.697Z,1041.8
2019-02-23T04:12:03.819Z,1041.8
2019-02-23T04:13:03.456Z,1041.8
2019-02-23T04:14:03.666Z,1041.8
2019-02-23T04:15:03.417Z,1041.8
2019-02-23T04:16:03.703Z,1041.8
2019-02-23T04:17:03.528Z,1041.8
2019-02-23T04:18:03.761Z,1041.9
2019-02-23T04:19:03.308Z,1041.8
2019-02-23T04:20:03.754Z,1041.8
2019-02-23T04:21:03.219Z,1041.8
2019-02-23T04:22:03.322Z,1042
2019-02-23T04:23:03.162Z,1041.9
2019-02-23T04:24:03.816Z,1041.9
2019-02-23T04:25:03.587Z,1041.7
2019-02-23T04:26:03.758Z,1041.9
2019-02-23T04:27:03.365Z,1041.9
2019-02-23T04:28:03.577Z,1041.7
2019-02-23T04:29:02.851Z,1041.9
2019-02-23T04:30:03.357Z,1041.9
2019-02-23T04:31:03.861Z,1041.9
2019-02-23T04:32:03.582Z,1041.9
2019-02-23T04:33:03.670Z,1042
2019-02-23T04:34:03.490Z,1041.9
2019-02-23T04:35:03.969Z,1041.9
2019-02-23T04:36:03.663Z,1041.9
2019-02-23T04:37:03.790Z,1041.8
2019-02-23T04:38:03.473Z,1041.9
2019-02-23T04:39:03.686Z,1041.9
2019-02-23T04:40:03.195Z,1041.9
2019-02-23T04:41:03.340Z,1041.7
2019-02-23T04:42:03.133Z,1041.7
2019-02-23T04:43:03.392Z,1041.8
2019-02-23T04:44:03.134Z,1041.6
2019-02-23T04:45:03.570Z,1041.8
2019-02-23T04:46:03.014Z,1041.7
2019-02-23T04:47:03.457Z,1041.7
2019-02-23T04:48:03.301Z,1041.7
2019-02-23T04:49:03.663Z,1041.8
2019-02-23T04:50:03.264Z,1041.9
2019-02-23T04:51:15.257Z,1041.8
2019-02-23T04:52:03.206Z,1041.9
2019-02-23T04:53:03.616Z,1041.9
2019-02-23T04:54:03.074Z,1041.8
2019-02-23T04:55:03.590Z,1041.9
2019-02-23T04:56:02.998Z,1041.9
2019-02-23T04:57:03.278Z,1041.9
2019-02-23T04:58:03.752Z,1041.9
2019-02-23T04:59:03.019Z,1041.9
2019-02-23T05:00:03.564Z,1042
2019-02-23T05:01:03.105Z,1041.9
2019-02-23T05:02:03.609Z,1042.1
2019-02-23T05:03:03.160Z,1041.9
2019-02-23T05:04:03.439Z,1042
2019-02-23T05:05:03.037Z,1042
2019-02-23T05:06:03.321Z,1042
2019-02-23T05:07:03.718Z,1042
2019-02-23T05:08:03.026Z,1042
2019-02-23T05:09:03.748Z,1042.1
2019-02-23T05:10:03.222Z,1042
2019-02-23T05:11:03.033Z,1042
2019-02-23T05:12:03.847Z,1042.1
2019-02-23T05:13:02.979Z,1042.1
2019-02-23T05:14:03.902Z,1042.1
2019-02-23T05:15:03.249Z,1042
2019-02-23T05:16:03.837Z,1042.1
2019-02-23T05:17:02.808Z,1042.1
2019-02-23T05:18:03.489Z,1042.1
2019-02-23T05:19:03.873Z,1042.1
2019-02-23T05:20:03.401Z,1042
2019-02-23T05:21:03.321Z,1042
2019-02-23T05:22:03.214Z,1042
2019-02-23T05:23:03.599Z,1042.1
2019-02-23T05:24:03.027Z,1042
2019-02-23T05:25:03.636Z,1042
2019-02-23T05:26:02.953Z,1042.1
2019-02-23T05:27:03.487Z,1042
2019-02-23T05:28:02.951Z,1042
2019-02-23T05:29:03.451Z,1042
2019-02-23T05:30:04.097Z,1041.9
2019-02-23T05:31:02.963Z,1042
2019-02-23T05:32:03.329Z,1041.9
2019-02-23T05:33:02.817Z,1042
2019-02-23T05:34:03.227Z,1042
2019-02-23T05:35:03.346Z,1042
2019-02-23T05:36:03.249Z,1041.9
2019-02-23T05:37:02.989Z,1041.9
2019-02-23T05:38:03.293Z,1041.9
2019-02-23T05:39:03.789Z,1042.1
2019-02-23T05:40:03.469Z,1042
2019-02-23T05:41:03.100Z,1042
2019-02-23T05:42:03.135Z,1042
2019-02-23T05:43:03.626Z,1042.1
2019-02-23T05:44:03.209Z,1042
2019-02-23T05:45:04.007Z,1042.1
2019-02-23T05:46:03.316Z,1042
2019-02-23T05:47:03.716Z,1042
2019-02-23T05:48:03.166Z,1042
2019-02-23T05:49:03.460Z,1042
2019-02-23T05:50:03.318Z,1042.2
2019-02-23T05:51:03.571Z,1042
2019-02-23T05:52:03.157Z,1041.9
2019-02-23T05:53:03.488Z,1041.9
2019-02-23T05:54:02.817Z,1041.8
2019-02-23T05:55:03.129Z,1041.9
2019-02-23T05:56:03.953Z,1041.9
2019-02-23T05:57:04.002Z,1042
2019-02-23T05:58:03.433Z,1042.2
2019-02-23T05:59:03.836Z,1042.2
2019-02-23T06:00:03.450Z,1042.2
2019-02-23T06:01:03.833Z,1042.3
2019-02-23T06:02:03.798Z,1042.3
2019-02-23T06:03:03.910Z,1042.2
2019-02-23T06:04:03.241Z,1042.3
2019-02-23T06:05:03.808Z,1042.2
2019-02-23T06:06:03.424Z,1042.3
2019-02-23T06:07:03.987Z,1042.2
2019-02-23T06:08:03.292Z,1042.2
2019-02-23T06:09:03.263Z,1042.2
2019-02-23T06:10:03.037Z,1042.3
2019-02-23T06:11:03.518Z,1042.3
2019-02-23T06:12:03.047Z,1042.3
2019-02-23T06:13:03.393Z,1042.2
2019-02-23T06:14:03.516Z,1042.2
2019-02-23T06:15:03.422Z,1042.3
2019-02-23T06:16:03.188Z,1042.1
2019-02-23T06:17:04.589Z,1042.1
2019-02-23T06:18:03.548Z,1042.1
2019-02-23T06:19:03.819Z,1042.2
2019-02-23T06:20:03.469Z,1042.1
2019-02-23T06:21:03.635Z,1042.2
2019-02-23T06:22:02.941Z,1042.2
2019-02-23T06:23:03.929Z,1042.2
2019-02-23T06:24:03.261Z,1042.3
2019-02-23T06:25:03.871Z,1042.3
2019-02-23T06:26:03.459Z,1042.3
2019-02-23T06:27:03.578Z,1042.4
2019-02-23T06:28:03.012Z,1042.3
2019-02-23T06:29:03.775Z,1042.3
2019-02-23T06:30:03.426Z,1042.4
2019-02-23T06:31:03.830Z,1042.5
2019-02-23T06:32:02.806Z,1042.4
2019-02-23T06:33:03.351Z,1042.4
2019-02-23T06:34:17.151Z,1042.4
2019-02-23T06:35:03.532Z,1042.5
2019-02-23T06:36:03.819Z,1042.5
2019-02-23T06:37:03.031Z,1042.6
2019-02-23T06:38:03.899Z,1042.6
2019-02-23T06:39:02.822Z,1042.8
2019-02-23T06:40:03.412Z,1042.8
2019-02-23T06:41:03.853Z,1042.8
2019-02-23T06:42:03.508Z,1042.6
2019-02-23T06:43:03.813Z,1042.8
2019-02-23T06:44:03.257Z,1042.8
2019-02-23T06:45:03.538Z,1042.6
2019-02-23T06:46:03.074Z,1042.5
2019-02-23T06:47:03.631Z,1042.5
2019-02-23T06:48:03.040Z,1042.5
2019-02-23T06:49:03.683Z,1042.6
2019-02-23T06:50:03.418Z,1042.5
2019-02-23T06:51:03.563Z,1042.6
2019-02-23T06:52:05.058Z,1042.5
2019-02-23T06:53:03.237Z,1042.6
2019-02-23T06:54:03.660Z,1042.5
2019-02-23T06:55:03.219Z,1042.5
2019-02-23T06:56:04.042Z,1042.5
2019-02-23T06:57:03.023Z,1042.5
2019-02-23T06:58:03.467Z,1042.4
2019-02-23T06:59:03.062Z,1042.3
2019-02-23T07:00:02.812Z,1042.3
2019-02-23T07:01:03.179Z,1042.3
2019-02-23T07:02:03.854Z,1042.2
2019-02-23T07:03:03.316Z,1042.2
2019-02-23T07:04:04.258Z,1042.1
2019-02-23T07:05:03.292Z,1042.1
2019-02-23T07:06:03.738Z,1042.2
2019-02-23T07:07:03.404Z,1042.1
2019-02-23T07:08:03.855Z,1042.1
2019-02-23T07:09:03.236Z,1041.9
2019-02-23T07:10:03.741Z,1041.9
2019-02-23T07:11:03.139Z,1041.9
2019-02-23T07:12:03.318Z,1042
2019-02-23T07:13:03.862Z,1041.9
2019-02-23T07:14:03.150Z,1041.8
2019-02-23T07:15:02.954Z,1041.8
2019-02-23T07:16:03.053Z,1041.7
2019-02-23T07:17:05.590Z,1041.6
2019-02-23T07:18:02.773Z,1041.5
2019-02-23T07:19:03.245Z,1041.5
2019-02-23T07:20:03.877Z,1041.4
2019-02-23T07:21:03.100Z,1041.2
2019-02-23T07:22:02.909Z,1041.3
2019-02-23T07:23:03.228Z,1041.3
2019-02-23T07:24:03.910Z,1041.2
2019-02-23T07:25:03.144Z,1041.2
2019-02-23T07:26:02.816Z,1041.2
2019-02-23T07:27:03.271Z,1041.2
2019-02-23T07:28:03.901Z,1041.3
2019-02-23T07:29:03.398Z,1041.3
2019-02-23T07:30:04.036Z,1041.3
2019-02-23T07:31:03.049Z,1041.3
2019-02-23T07:32:03.012Z,1041.4
2019-02-23T07:33:03.363Z,1041.5
2019-02-23T07:34:03.073Z,1041.5
2019-02-23T07:35:03.642Z,1041.5
2019-02-23T07:36:02.868Z,1041.5
2019-02-23T07:37:03.351Z,1041.5
2019-02-23T07:38:03.259Z,1041.5
2019-02-23T07:39:03.360Z,1041.5
2019-02-23T07:40:03.488Z,1041.5
2019-02-23T07:41:03.343Z,1041.5
2019-02-23T07:42:03.782Z,1041.5
2019-02-23T07:43:03.420Z,1041.5
2019-02-23T07:44:03.812Z,1041.5
2019-02-23T07:45:03.161Z,1041.5
2019-02-23T07:46:03.647Z,1041.5
2019-02-23T07:47:03.178Z,1041.5
2019-02-23T07:48:03.508Z,1041.5
2019-02-23T07:49:03.728Z,1041.5
2019-02-23T07:50:03.199Z,1041.5
2019-02-23T07:51:03.128Z,1041.5
2019-02-23T07:52:03.121Z,1041.5
2019-02-23T07:53:02.876Z,1041.5
2019-02-23T07:54:03.377Z,1041.5
2019-02-23T07:55:03.652Z,1041.5
2019-02-23T07:56:03.344Z,1041.5
2019-02-23T07:57:03.074Z,1041.5
2019-02-23T07:58:03.075Z,1041.5
2019-02-23T07:59:03.763Z,1041.5
2019-02-23T08:00:03.240Z,1041.5
2019-02-23T08:01:03.875Z,1041.5
2019-02-23T08:02:03.113Z,1041.5
2019-02-23T08:03:03.524Z,1041.5
2019-02-23T08:04:03.646Z,1041.5
2019-02-23T08:05:03.767Z,1041.5
2019-02-23T08:06:03.837Z,1041.5
2019-02-23T08:07:03.764Z,1041.5
2019-02-23T08:08:02.777Z,1041.5
2019-02-23T08:09:03.584Z,1041.5
2019-02-23T08:10:04.006Z,1041.5
2019-02-23T08:11:03.423Z,1041.5
2019-02-23T08:12:03.172Z,1041.5
2019-02-23T08:13:03.321Z,1041.5
2019-02-23T08:14:03.859Z,1041.5
2019-02-23T08:15:03.630Z,1041.5
2019-02-23T08:16:02.972Z,1041.5
2019-02-23T08:17:03.399Z,1041.5
2019-02-23T08:18:02.912Z,1041.5
2019-02-23T08:19:03.388Z,1041.5
2019-02-23T08:20:02.780Z,1041.5
2019-02-23T08:21:03.314Z,1041.5
2019-02-23T08:22:02.921Z,1041.5
2019-02-23T08:23:03.277Z,1041.5
2019-02-23T08:24:03.853Z,1041.5
2019-02-23T08:25:03.358Z,1041.5
2019-02-23T08:26:03.892Z,1041.5
2019-02-23T08:27:03.129Z,1041.5
2019-02-23T08:28:03.558Z,1041.5
2019-02-23T08:29:02.851Z,1041.5
2019-02-23T08:30:03.786Z,1041.5
2019-02-23T08:31:02.959Z,1041.5
2019-02-23T08:32:03.268Z,1041.5
2019-02-23T08:33:03.662Z,1041.5
2019-02-23T08:34:03.248Z,1041.5
2019-02-23T08:35:03.910Z,1041.1
2019-02-23T08:36:03.479Z,1041.5
2019-02-23T08:37:02.846Z,1041.3
2019-02-23T08:38:03.118Z,1041.3
2019-02-23T08:39:03.688Z,1041.4
2019-02-23T08:40:02.985Z,1041.5
2019-02-23T08:41:03.668Z,1041.5
2019-02-23T08:42:03.219Z,1041.4
2019-02-23T08:43:03.480Z,1041.4
2019-02-23T08:44:03.088Z,1041.4
2019-02-23T08:45:03.503Z,1041.3
2019-02-23T08:46:03.115Z,1041.4
2019-02-23T08:47:03.821Z,1041.4
2019-02-23T08:48:03.228Z,1041.4
2019-02-23T08:49:03.910Z,1041.4
2019-02-23T08:50:03.578Z,1041.4
2019-02-23T08:51:03.868Z,1041.3
2019-02-23T08:52:03.378Z,1041.3
2019-02-23T08:53:03.696Z,1041.4
2019-02-23T08:54:03.129Z,1041.3
2019-02-23T08:55:03.403Z,1041.3
2019-02-23T08:56:02.918Z,1041.3
2019-02-23T08:57:03.577Z,1041.3
2019-02-23T08:58:03.802Z,1041.3
2019-02-23T08:59:03.236Z,1041.3
2019-02-23T09:00:03.768Z,1041.3
2019-02-23T09:01:02.892Z,1041.4
2019-02-23T09:02:03.549Z,1041.3
2019-02-23T09:03:03.676Z,1041.3
2019-02-23T09:04:03.597Z,1041.3
2019-02-23T09:05:03.088Z,1041.3
2019-02-23T09:06:03.282Z,1041.3
2019-02-23T09:07:03.638Z,1041.4
2019-02-23T09:08:03.604Z,1041.4
2019-02-23T09:09:03.060Z,1041.3
2019-02-23T09:10:03.385Z,1041.3
2019-02-23T09:11:03.707Z,1041.3
2019-02-23T09:12:03.043Z,1041.2
2019-02-23T09:13:03.642Z,1041.3
2019-02-23T09:14:02.850Z,1041.3
2019-02-23T09:15:03.629Z,1041.3
2019-02-23T09:16:03.727Z,1041.2
2019-02-23T09:17:03.779Z,1041.2
2019-02-23T09:18:03.866Z,1041.2
2019-02-23T09:19:03.475Z,1041.3
2019-02-23T09:20:03.498Z,1041.2
2019-02-23T09:21:03.135Z,1041.2
2019-02-23T09:22:03.506Z,1041.3
2019-02-23T09:23:02.850Z,1041.3
2019-02-23T09:24:03.317Z,1041.3
2019-02-23T09:25:03.948Z,1041.4
2019-02-23T09:26:03.134Z,1041.4
2019-02-23T09:27:03.473Z,1041.4
2019-02-23T09:28:03.206Z,1041.4
2019-02-23T09:29:03.931Z,1041.4
2019-02-23T09:30:03.820Z,1041.4
2019-02-23T09:31:03.918Z,1041.4
2019-02-23T09:32:03.747Z,1041.4
2019-02-23T09:33:03.574Z,1041.5
2019-02-23T09:34:03.941Z,1041.4
2019-02-23T09:35:03.630Z,1041.6
2019-02-23T09:36:03.625Z,1041.5
2019-02-23T09:37:03.441Z,1041.5
2019-02-23T09:38:03.676Z,1041.6
2019-02-23T09:39:03.742Z,1041.5
2019-02-23T09:40:03.741Z,1041.6
2019-02-23T09:41:03.036Z,1041.6
2019-02-23T09:42:08.066Z,1041.7
2019-02-23T09:43:03.488Z,1041.6
2019-02-23T09:44:02.936Z,1041.6
2019-02-23T09:45:03.118Z,1041.5
2019-02-23T09:46:03.784Z,1041.4
2019-02-23T09:47:03.833Z,1041.3
2019-02-23T09:48:03.623Z,1041.3
2019-02-23T09:49:03.012Z,1041.4
2019-02-23T09:50:03.591Z,1041.3
2019-02-23T09:51:03.700Z,1041.3
2019-02-23T09:52:03.641Z,1041.3
2019-02-23T09:53:11.855Z,1041.3
2019-02-23T09:54:03.130Z,1041.3
2019-02-23T09:55:03.617Z,1041.2
2019-02-23T09:56:02.897Z,1041.1
2019-02-23T09:57:03.613Z,1041
2019-02-23T09:58:03.107Z,1041
2019-02-23T09:59:03.465Z,1041
2019-02-23T10:00:03.197Z,1041.1
2019-02-23T10:01:03.718Z,1041.1
2019-02-23T10:02:03.097Z,1041.1
2019-02-23T10:03:03.746Z,1041
2019-02-23T10:04:04.194Z,1041
2019-02-23T10:05:03.493Z,1041
2019-02-23T10:06:03.562Z,1041
2019-02-23T10:07:03.400Z,1041
2019-02-23T10:08:03.382Z,1040.9
2019-02-23T10:09:02.887Z,1040.9
2019-02-23T10:10:03.363Z,1041
2019-02-23T10:11:02.931Z,1041
2019-02-23T10:12:03.627Z,1041
2019-02-23T10:13:04.105Z,1040.9
2019-02-23T10:14:03.210Z,1041
2019-02-23T10:15:03.884Z,1041
2019-02-23T10:16:03.312Z,1041
2019-02-23T10:17:03.787Z,1041
2019-02-23T10:18:03.323Z,1041
2019-02-23T10:19:03.707Z,1040.8
2019-02-23T10:20:03.373Z,1041
2019-02-23T10:21:03.935Z,1041
2019-02-23T10:22:03.129Z,1040.9
2019-02-23T10:23:02.893Z,1041
2019-02-23T10:24:03.504Z,1040.9
2019-02-23T10:25:03.996Z,1041.1
2019-02-23T10:26:03.876Z,1041
2019-02-23T10:27:02.978Z,1041.1
2019-02-23T10:28:03.834Z,1041.1
2019-02-23T10:29:03.232Z,1041.1
2019-02-23T10:30:03.809Z,1041.1
2019-02-23T10:31:03.931Z,1041.3
2019-02-23T10:32:03.922Z,1041.2
2019-02-23T10:33:03.187Z,1041.1
2019-02-23T10:34:03.907Z,1041.3
2019-02-23T10:35:03.088Z,1041.3
2019-02-23T10:36:03.690Z,1041.3
2019-02-23T10:37:03.137Z,1041.2
2019-02-23T10:38:04.052Z,1041.2
2019-02-23T10:39:03.445Z,1041.1
2019-02-23T10:40:04.097Z,1041
2019-02-23T10:41:03.525Z,1041
2019-02-23T10:42:03.021Z,1041
2019-02-23T10:43:03.690Z,1041.1
2019-02-23T10:44:03.229Z,1041
2019-02-23T10:45:03.366Z,1041.1
2019-02-23T10:46:03.795Z,1041.2
2019-02-23T10:47:02.927Z,1041.1
2019-02-23T10:48:03.759Z,1041.1
2019-02-23T10:49:02.997Z,1041
2019-02-23T10:50:03.602Z,1041
2019-02-23T10:51:03.005Z,1041
2019-02-23T10:52:03.534Z,1040.9
2019-02-23T10:53:03.044Z,1040.9
2019-02-23T10:54:03.450Z,1040.9
2019-02-23T10:55:03.730Z,1040.9
2019-02-23T10:56:03.384Z,1040.9
2019-02-23T10:57:03.946Z,1040.8
2019-02-23T10:58:03.219Z,1040.9
2019-02-23T10:59:03.698Z,1040.8
2019-02-23T11:00:04.194Z,1040.9
2019-02-23T11:01:03.051Z,1040.7
2019-02-23T11:02:03.729Z,1040.7
2019-02-23T11:03:03.542Z,1040.6
2019-02-23T11:04:02.924Z,1040.6
2019-02-23T11:05:03.211Z,1040.6
2019-02-23T11:06:03.490Z,1040.6
2019-02-23T11:07:04.013Z,1040.6
2019-02-23T11:08:03.610Z,1040.5
2019-02-23T11:09:03.211Z,1040.6
2019-02-23T11:10:03.352Z,1040.6
2019-02-23T11:11:03.932Z,1040.7
2019-02-23T11:12:03.915Z,1040.7
2019-02-23T11:13:03.751Z,1040.5
2019-02-23T11:14:03.988Z,1040.6
2019-02-23T11:15:03.055Z,1040.6
2019-02-23T11:16:03.836Z,1040.5
2019-02-23T11:17:03.376Z,1040.4
2019-02-23T11:18:03.925Z,1040.5
2019-02-23T11:19:03.410Z,1040.5
2019-02-23T11:20:03.880Z,1040.4
2019-02-23T11:21:03.170Z,1040.6
2019-02-23T11:22:03.715Z,1040.4
2019-02-23T11:23:03.321Z,1040.6
2019-02-23T11:24:03.732Z,1040.5
2019-02-23T11:25:03.227Z,1040.5
2019-02-23T11:26:03.430Z,1040.5
2019-02-23T11:27:03.003Z,1040.5
2019-02-23T11:28:03.608Z,1040.5
2019-02-23T11:29:03.096Z,1040.4
2019-02-23T11:30:03.905Z,1040.4
2019-02-23T11:31:03.060Z,1040.5
2019-02-23T11:32:03.601Z,1040.4
2019-02-23T11:33:03.778Z,1040.2
2019-02-23T11:34:03.452Z,1040.2
2019-02-23T11:35:04.171Z,1040.1
2019-02-23T11:36:03.641Z,1040.2
2019-02-23T11:37:02.980Z,1040.1
2019-02-23T11:38:03.488Z,1040.2
2019-02-23T11:39:03.940Z,1040.2
2019-02-23T11:40:03.374Z,1040.2
2019-02-23T11:41:02.842Z,1040.2
2019-02-23T11:42:03.410Z,1040.2
2019-02-23T11:43:03.227Z,1040.3
2019-02-23T11:44:03.132Z,1040.2
2019-02-23T11:45:03.879Z,1040.3
2019-02-23T11:46:03.330Z,1040.2
2019-02-23T11:47:03.776Z,1040.2
2019-02-23T11:48:03.138Z,1040.3
2019-02-23T11:49:03.889Z,1040.2
2019-02-23T11:50:04.025Z,1040.2
2019-02-23T11:51:03.308Z,1040.2
2019-02-23T11:52:03.684Z,1040.2
2019-02-23T11:53:03.368Z,1040.2
2019-02-23T11:54:03.913Z,1040.2
2019-02-23T11:55:03.277Z,1040.4
2019-02-23T11:56:03.672Z,1040.3
2019-02-23T11:57:03.098Z,1040.3
2019-02-23T11:58:03.577Z,1040.3
2019-02-23T11:59:04.091Z,1040.5
2019-02-23T12:00:03.697Z,1040.4
2019-02-23T12:01:03.994Z,1040.4
2019-02-23T12:02:03.500Z,1040.4
2019-02-23T12:03:03.695Z,1040.4
2019-02-23T12:04:03.379Z,1040.3
2019-02-23T12:05:03.735Z,1040.4
2019-02-23T12:06:03.090Z,1040.3
2019-02-23T12:07:03.660Z,1040.3
2019-02-23T12:08:03.563Z,1040.3
2019-02-23T12:09:03.696Z,1040.2
2019-02-23T12:10:03.325Z,1040.3
2019-02-23T12:11:03.587Z,1040.3
2019-02-23T12:12:03.044Z,1040.3
2019-02-23T12:13:03.949Z,1040
2019-02-23T12:14:03.258Z,1039.9
2019-02-23T12:15:03.535Z,1040
2019-02-23T12:16:04.016Z,1039.9
2019-02-23T12:17:03.331Z,1040
2019-02-23T12:18:04.095Z,1039.9
2019-02-23T12:19:03.395Z,1039.8
2019-02-23T12:20:04.042Z,1039.9
2019-02-23T12:21:03.340Z,1039.8
2019-02-23T12:22:13.109Z,1039.8
2019-02-23T12:23:02.940Z,1039.8
2019-02-23T12:24:06.822Z,1039.8
2019-02-23T12:25:03.779Z,1039.9
2019-02-23T12:26:03.216Z,1039.9
2019-02-23T12:27:03.909Z,1039.8
2019-02-23T12:28:03.797Z,1039.8
2019-02-23T12:29:03.767Z,1039.7
2019-02-23T12:30:03.448Z,1039.7
2019-02-23T12:31:03.766Z,1039.7
2019-02-23T12:32:03.641Z,1039.7
2019-02-23T12:33:03.047Z,1039.6
2019-02-23T12:34:03.464Z,1039.7
2019-02-23T12:35:03.827Z,1039.7